sensor_id;sensor_type;location;lat;lon;timestamp;pressure;altitude;pressure_sealevel;temperature;humidity
69223;BME280;56514;51.816;-0.026;2023-08-06T00:01:43;100631.78;;;14.04;77.98
69223;BME280;56514;51.816;-0.026;2023-08-06T00:04:52;100643.03;;;13.97;77.88
69223;BME280;56514;51.816;-0.026;2023-08-06T00:07:38;100635.59;;;13.91;78.37
69223;BME280;56514;51.816;-0.026;2023-08-06T00:10:23;100643.72;;;13.99;77.46
69223;BME280;56514;51.816;-0.026;2023-08-06T00:13:08;100633.63;;;13.93;77.62
69223;BME280;56514;51.816;-0.026;2023-08-06T00:15:53;100635.38;;;14.03;77.25
69223;BME280;56514;51.816;-0.026;2023-08-06T00:18:39;100649.78;;;13.90;77.24
69223;BME280;56514;51.816;-0.026;2023-08-06T00:21:24;100649.13;;;13.77;77.66
69223;BME280;56514;51.816;-0.026;2023-08-06T00:24:09;100652.47;;;13.79;77.24
69223;BME280;56514;51.816;-0.026;2023-08-06T00:26:54;100645.75;;;13.75;77.30
69223;BME280;56514;51.816;-0.026;2023-08-06T00:29:39;100648.56;;;13.62;77.39
69223;BME280;56514;51.816;-0.026;2023-08-06T00:32:24;100653.06;;;13.51;77.51
69223;BME280;56514;51.816;-0.026;2023-08-06T00:35:12;100640.81;;;13.39;77.72
69223;BME280;56514;51.816;-0.026;2023-08-06T00:37:58;100647.81;;;13.29;77.94
69223;BME280;56514;51.816;-0.026;2023-08-06T00:40:42;100650.00;;;13.24;78.33
69223;BME280;56514;51.816;-0.026;2023-08-06T00:43:28;100656.28;;;13.12;78.74
69223;BME280;56514;51.816;-0.026;2023-08-06T00:46:13;100658.31;;;13.08;78.55
69223;BME280;56514;51.816;-0.026;2023-08-06T00:48:58;100675.16;;;13.18;78.73
69223;BME280;56514;51.816;-0.026;2023-08-06T00:51:43;100656.75;;;13.06;78.12
69223;BME280;56514;51.816;-0.026;2023-08-06T00:54:30;100668.25;;;12.94;79.08
69223;BME280;56514;51.816;-0.026;2023-08-06T00:57:16;100672.50;;;12.96;79.04
69223;BME280;56514;51.816;-0.026;2023-08-06T01:00:02;100670.94;;;12.83;79.26
69223;BME280;56514;51.816;-0.026;2023-08-06T01:02:48;100669.22;;;12.82;79.39
69223;BME280;56514;51.816;-0.026;2023-08-06T01:05:34;100670.94;;;12.83;79.42
69223;BME280;56514;51.816;-0.026;2023-08-06T01:17:07;100689.69;;;12.69;80.12
69223;BME280;56514;51.816;-0.026;2023-08-06T01:19:52;100693.53;;;12.65;80.28
69223;BME280;56514;51.816;-0.026;2023-08-06T01:22:37;100695.81;;;12.69;79.98
69223;BME280;56514;51.816;-0.026;2023-08-06T01:25:29;100704.13;;;12.65;80.25
69223;BME280;56514;51.816;-0.026;2023-08-06T01:31:37;100704.22;;;12.63;80.04
69223;BME280;56514;51.816;-0.026;2023-08-06T01:34:24;100708.41;;;12.55;80.59
69223;BME280;56514;51.816;-0.026;2023-08-06T01:37:13;100708.69;;;12.63;80.05
69223;BME280;56514;51.816;-0.026;2023-08-06T01:39:59;100708.19;;;12.58;80.18
69223;BME280;56514;51.816;-0.026;2023-08-06T01:42:43;100711.78;;;12.57;80.45
69223;BME280;56514;51.816;-0.026;2023-08-06T01:45:28;100714.56;;;12.55;80.32
69223;BME280;56514;51.816;-0.026;2023-08-06T01:48:13;100724.53;;;12.52;80.16
69223;BME280;56514;51.816;-0.026;2023-08-06T01:50:57;100725.59;;;12.49;80.23
69223;BME280;56514;51.816;-0.026;2023-08-06T01:53:42;100732.31;;;12.42;80.76
69223;BME280;56514;51.816;-0.026;2023-08-06T01:56:27;100739.06;;;12.46;80.34
69223;BME280;56514;51.816;-0.026;2023-08-06T01:59:12;100747.47;;;12.51;80.37
69223;BME280;56514;51.816;-0.026;2023-08-06T02:01:57;100747.59;;;12.50;80.13
69223;BME280;56514;51.816;-0.026;2023-08-06T02:04:42;100754.44;;;12.41;80.33
69223;BME280;56514;51.816;-0.026;2023-08-06T02:07:26;100752.53;;;12.43;80.55
69223;BME280;56514;51.816;-0.026;2023-08-06T02:10:11;100754.66;;;12.38;80.36
69223;BME280;56514;51.816;-0.026;2023-08-06T02:12:56;100757.59;;;12.46;80.19
69223;BME280;56514;51.816;-0.026;2023-08-06T02:15:45;100756.34;;;12.39;80.37
69223;BME280;56514;51.816;-0.026;2023-08-06T02:18:32;100747.53;;;12.27;80.57
69223;BME280;56514;51.816;-0.026;2023-08-06T02:21:16;100762.44;;;12.28;80.81
69223;BME280;56514;51.816;-0.026;2023-08-06T02:24:01;100758.34;;;12.24;80.61
69223;BME280;56514;51.816;-0.026;2023-08-06T02:26:46;100753.41;;;12.20;80.73
69223;BME280;56514;51.816;-0.026;2023-08-06T02:29:33;100767.66;;;12.17;81.02
69223;BME280;56514;51.816;-0.026;2023-08-06T02:32:19;100765.75;;;12.19;80.57
69223;BME280;56514;51.816;-0.026;2023-08-06T02:35:04;100762.88;;;12.22;80.31
69223;BME280;56514;51.816;-0.026;2023-08-06T02:37:49;100770.94;;;12.21;80.34
69223;BME280;56514;51.816;-0.026;2023-08-06T02:40:34;100769.03;;;12.23;79.73
69223;BME280;56514;51.816;-0.026;2023-08-06T02:43:18;100773.47;;;12.22;79.68
69223;BME280;56514;51.816;-0.026;2023-08-06T02:46:04;100775.78;;;12.27;79.49
69223;BME280;56514;51.816;-0.026;2023-08-06T02:48:48;100765.75;;;12.19;79.83
69223;BME280;56514;51.816;-0.026;2023-08-06T02:51:34;100766.78;;;12.06;80.04
69223;BME280;56514;51.816;-0.026;2023-08-06T02:54:19;100770.53;;;12.14;79.79
69223;BME280;56514;51.816;-0.026;2023-08-06T02:57:05;100770.06;;;12.09;80.03
69223;BME280;56514;51.816;-0.026;2023-08-06T02:59:50;100762.13;;;12.09;79.52
69223;BME280;56514;51.816;-0.026;2023-08-06T03:02:34;100761.59;;;12.04;79.40
69223;BME280;56514;51.816;-0.026;2023-08-06T03:05:19;100766.03;;;12.04;79.75
69223;BME280;56514;51.816;-0.026;2023-08-06T03:08:04;100773.84;;;12.05;79.35
69223;BME280;56514;51.816;-0.026;2023-08-06T03:10:49;100770.06;;;12.09;79.20
69223;BME280;56514;51.816;-0.026;2023-08-06T03:13:34;100775.13;;;12.12;78.83
69223;BME280;56514;51.816;-0.026;2023-08-06T03:16:19;100769.09;;;12.10;78.77
69223;BME280;56514;51.816;-0.026;2023-08-06T03:19:03;100765.00;;;12.06;78.62
69223;BME280;56514;51.816;-0.026;2023-08-06T03:21:48;100776.25;;;11.97;78.89
69223;BME280;56514;51.816;-0.026;2023-08-06T03:24:33;100775.91;;;12.02;78.86
69223;BME280;56514;51.816;-0.026;2023-08-06T03:27:18;100776.91;;;11.88;79.08
69223;BME280;56514;51.816;-0.026;2023-08-06T03:30:03;100785.78;;;11.87;79.50
69223;BME280;56514;51.816;-0.026;2023-08-06T03:32:48;100787.25;;;11.91;79.06
69223;BME280;56514;51.816;-0.026;2023-08-06T03:35:33;100793.19;;;11.82;79.25
69223;BME280;56514;51.816;-0.026;2023-08-06T03:38:18;100793.06;;;11.84;79.82
69223;BME280;56514;51.816;-0.026;2023-08-06T03:41:02;100796.78;;;11.81;79.06
69223;BME280;56514;51.816;-0.026;2023-08-06T03:43:47;100793.72;;;11.75;79.84
69223;BME280;56514;51.816;-0.026;2023-08-06T03:46:32;100797.22;;;11.75;79.59
69223;BME280;56514;51.816;-0.026;2023-08-06T03:49:18;100793.06;;;11.84;79.25
69223;BME280;56514;51.816;-0.026;2023-08-06T03:52:03;100795.34;;;11.77;79.10
69223;BME280;56514;51.816;-0.026;2023-08-06T03:54:48;100791.53;;;11.69;79.59
69223;BME280;56514;51.816;-0.026;2023-08-06T03:57:33;100799.66;;;11.78;78.69
69223;BME280;56514;51.816;-0.026;2023-08-06T04:00:18;100793.19;;;11.82;79.00
69223;BME280;56514;51.816;-0.026;2023-08-06T04:03:03;100798.69;;;11.79;78.78
69223;BME280;56514;51.816;-0.026;2023-08-06T04:05:48;100812.44;;;11.72;78.97
69223;BME280;56514;51.816;-0.026;2023-08-06T04:08:33;100810.78;;;11.71;79.32
69223;BME280;56514;51.816;-0.026;2023-08-06T04:11:18;100798.19;;;11.74;78.90
69223;BME280;56514;51.816;-0.026;2023-08-06T04:14:03;100808.44;;;11.79;78.49
69223;BME280;56514;51.816;-0.026;2023-08-06T04:16:47;100811.63;;;11.71;78.90
69223;BME280;56514;51.816;-0.026;2023-08-06T04:19:35;100817.56;;;11.62;78.97
69223;BME280;56514;51.816;-0.026;2023-08-06T04:22:21;100821.56;;;11.68;78.97
69223;BME280;56514;51.816;-0.026;2023-08-06T04:25:06;100832.44;;;11.76;78.34
69223;BME280;56514;51.816;-0.026;2023-08-06T04:27:52;100825.06;;;11.68;78.96
69223;BME280;56514;51.816;-0.026;2023-08-06T04:30:37;100835.75;;;11.67;78.52
69223;BME280;56514;51.816;-0.026;2023-08-06T04:33:22;100834.44;;;11.60;79.13
69223;BME280;56514;51.816;-0.026;2023-08-06T04:36:07;100839.28;;;11.78;78.26
69223;BME280;56514;51.816;-0.026;2023-08-06T04:38:52;100847.03;;;11.69;78.55
69223;BME280;56514;51.816;-0.026;2023-08-06T04:41:36;100846.38;;;11.78;78.20
69223;BME280;56514;51.816;-0.026;2023-08-06T04:44:21;100845.03;;;11.72;78.23
69223;BME280;56514;51.816;-0.026;2023-08-06T04:47:06;100854.56;;;11.62;78.60
69223;BME280;56514;51.816;-0.026;2023-08-06T04:49:50;100853.16;;;11.69;78.55
69223;BME280;56514;51.816;-0.026;2023-08-06T04:52:35;100851.75;;;11.76;77.96
69223;BME280;56514;51.816;-0.026;2023-08-06T04:55:20;100847.44;;;11.75;78.18
69223;BME280;56514;51.816;-0.026;2023-08-06T04:58:05;100856.56;;;11.71;78.02
69223;BME280;56514;51.816;-0.026;2023-08-06T05:00:50;100858.31;;;11.83;77.82
69223;BME280;56514;51.816;-0.026;2023-08-06T05:03:35;100858.84;;;11.88;77.46
69223;BME280;56514;51.816;-0.026;2023-08-06T05:06:20;100860.44;;;11.78;77.95
69223;BME280;56514;51.816;-0.026;2023-08-06T05:09:05;100869.53;;;11.87;77.65
69223;BME280;56514;51.816;-0.026;2023-08-06T05:11:50;100887.19;;;11.86;78.12
69223;BME280;56514;51.816;-0.026;2023-08-06T05:14:36;100877.13;;;11.91;77.81
69223;BME280;56514;51.816;-0.026;2023-08-06T05:17:21;100886.94;;;12.02;77.03
69223;BME280;56514;51.816;-0.026;2023-08-06T05:20:08;100894.13;;;12.12;76.86
69223;BME280;56514;51.816;-0.026;2023-08-06T05:22:53;100891.69;;;12.09;77.31
69223;BME280;56514;51.816;-0.026;2023-08-06T05:25:38;100896.75;;;12.12;77.02
69223;BME280;56514;51.816;-0.026;2023-08-06T05:28:23;100897.38;;;12.16;76.91
69223;BME280;56514;51.816;-0.026;2023-08-06T05:31:08;100898.09;;;12.18;76.88
69223;BME280;56514;51.816;-0.026;2023-08-06T05:33:52;100900.91;;;12.40;75.76
69223;BME280;56514;51.816;-0.026;2023-08-06T05:36:39;100905.97;;;12.43;75.47
69223;BME280;56514;51.816;-0.026;2023-08-06T05:39:23;100911.41;;;12.53;74.88
69223;BME280;56514;51.816;-0.026;2023-08-06T05:42:08;100906.88;;;12.55;75.04
69223;BME280;56514;51.816;-0.026;2023-08-06T05:44:53;100902.31;;;12.57;74.77
69223;BME280;56514;51.816;-0.026;2023-08-06T05:47:38;100914.38;;;12.61;74.81
69223;BME280;56514;51.816;-0.026;2023-08-06T05:50:23;100928.44;;;12.61;74.60
69223;BME280;56514;51.816;-0.026;2023-08-06T05:53:09;100928.34;;;12.63;75.26
69223;BME280;56514;51.816;-0.026;2023-08-06T05:55:54;100936.94;;;12.77;74.56
69223;BME280;56514;51.816;-0.026;2023-08-06T05:58:38;100932.78;;;12.86;74.40
69223;BME280;56514;51.816;-0.026;2023-08-06T06:01:23;100930.28;;;12.95;73.98
69223;BME280;56514;51.816;-0.026;2023-08-06T06:04:08;100944.72;;;12.91;74.36
69223;BME280;56514;51.816;-0.026;2023-08-06T06:06:53;100935.03;;;13.03;73.59
69223;BME280;56514;51.816;-0.026;2023-08-06T06:09:38;100932.09;;;13.18;72.86
69223;BME280;56514;51.816;-0.026;2023-08-06T06:12:24;100931.28;;;13.18;73.11
69223;BME280;56514;51.816;-0.026;2023-08-06T06:15:12;100940.19;;;13.28;72.44
69223;BME280;56514;51.816;-0.026;2023-08-06T06:17:57;100950.28;;;13.23;72.60
69223;BME280;56514;51.816;-0.026;2023-08-06T06:20:42;100954.66;;;13.35;72.21
69223;BME280;56514;51.816;-0.026;2023-08-06T06:23:27;100953.09;;;13.32;72.66
69223;BME280;56514;51.816;-0.026;2023-08-06T06:26:12;100943.00;;;13.37;72.20
69223;BME280;56514;51.816;-0.026;2023-08-06T06:28:58;100960.13;;;13.44;72.42
69223;BME280;56514;51.816;-0.026;2023-08-06T06:31:43;100958.22;;;13.46;72.24
69223;BME280;56514;51.816;-0.026;2023-08-06T06:34:28;100958.34;;;13.67;71.52
69223;BME280;56514;51.816;-0.026;2023-08-06T06:37:12;100951.88;;;13.71;71.08
69223;BME280;56514;51.816;-0.026;2023-08-06T06:39:57;100958.38;;;13.78;70.79
69223;BME280;56514;51.816;-0.026;2023-08-06T06:42:42;100966.56;;;13.75;71.22
69223;BME280;56514;51.816;-0.026;2023-08-06T06:45:26;100975.53;;;13.85;70.74
69223;BME280;56514;51.816;-0.026;2023-08-06T06:48:11;100975.53;;;13.85;70.67
69223;BME280;56514;51.816;-0.026;2023-08-06T06:50:56;100972.28;;;13.92;70.50
69223;BME280;56514;51.816;-0.026;2023-08-06T06:53:41;100980.44;;;14.00;70.78
69223;BME280;56514;51.816;-0.026;2023-08-06T06:56:26;100979.72;;;14.09;69.85
69223;BME280;56514;51.816;-0.026;2023-08-06T06:59:10;100983.63;;;14.17;70.08
69223;BME280;56514;51.816;-0.026;2023-08-06T07:01:55;100978.88;;;14.20;70.25
69223;BME280;56514;51.816;-0.026;2023-08-06T07:04:40;100984.59;;;14.38;68.99
69223;BME280;56514;51.816;-0.026;2023-08-06T07:07:25;100992.94;;;14.44;68.51
69223;BME280;56514;51.816;-0.026;2023-08-06T07:10:10;100991.22;;;14.43;69.06
69223;BME280;56514;51.816;-0.026;2023-08-06T07:12:54;101002.31;;;14.59;68.06
69223;BME280;56514;51.816;-0.026;2023-08-06T07:15:39;100985.91;;;14.65;68.24
69223;BME280;56514;51.816;-0.026;2023-08-06T07:18:24;100998.69;;;14.71;68.02
69223;BME280;56514;51.816;-0.026;2023-08-06T07:21:09;100996.50;;;14.65;67.89
69223;BME280;56514;51.816;-0.026;2023-08-06T07:23:54;100987.44;;;14.79;67.41
69223;BME280;56514;51.816;-0.026;2023-08-06T07:26:40;101002.50;;;14.89;66.88
69223;BME280;56514;51.816;-0.026;2023-08-06T07:29:25;101002.09;;;15.05;65.61
69223;BME280;56514;51.816;-0.026;2023-08-06T07:32:13;101003.19;;;15.02;66.60
69223;BME280;56514;51.816;-0.026;2023-08-06T07:34:58;101012.69;;;15.16;65.75
69223;BME280;56514;51.816;-0.026;2023-08-06T07:37:45;101012.22;;;15.11;65.93
69223;BME280;56514;51.816;-0.026;2023-08-06T07:40:30;101005.91;;;15.12;65.42
69223;BME280;56514;51.816;-0.026;2023-08-06T07:43:14;101005.28;;;15.19;66.32
69223;BME280;56514;51.816;-0.026;2023-08-06T07:46:00;101010.69;;;15.40;65.68
69223;BME280;56514;51.816;-0.026;2023-08-06T07:48:45;101013.69;;;15.35;65.36
69223;BME280;56514;51.816;-0.026;2023-08-06T07:51:30;101010.31;;;15.44;64.46
69223;BME280;56514;51.816;-0.026;2023-08-06T07:54:15;101010.56;;;15.41;64.58
69223;BME280;56514;51.816;-0.026;2023-08-06T07:56:59;101014.47;;;15.58;64.16
69223;BME280;56514;51.816;-0.026;2023-08-06T07:59:45;101023.69;;;15.74;64.24
69223;BME280;56514;51.816;-0.026;2023-08-06T08:02:29;101023.03;;;15.82;63.46
69223;BME280;56514;51.816;-0.026;2023-08-06T08:05:15;101031.22;;;15.90;62.69
69223;BME280;56514;51.816;-0.026;2023-08-06T08:08:00;101020.69;;;15.89;62.49
69223;BME280;56514;51.816;-0.026;2023-08-06T08:10:46;101029.56;;;15.99;62.23
69223;BME280;56514;51.816;-0.026;2023-08-06T08:13:30;101022.03;;;16.04;63.02
69223;BME280;56514;51.816;-0.026;2023-08-06T08:16:15;101022.66;;;16.17;62.63
69223;BME280;56514;51.816;-0.026;2023-08-06T08:19:00;101034.81;;;16.30;61.64
69223;BME280;56514;51.816;-0.026;2023-08-06T08:21:45;101043.34;;;16.54;59.25
69223;BME280;56514;51.816;-0.026;2023-08-06T08:24:30;101042.03;;;16.49;60.00
69223;BME280;56514;51.816;-0.026;2023-08-06T08:27:15;101035.34;;;16.54;59.88
69223;BME280;56514;51.816;-0.026;2023-08-06T08:30:00;101029.91;;;16.56;60.19
69223;BME280;56514;51.816;-0.026;2023-08-06T08:32:45;101042.31;;;16.76;60.39
69223;BME280;56514;51.816;-0.026;2023-08-06T08:35:31;101035.06;;;16.97;58.06
69223;BME280;56514;51.816;-0.026;2023-08-06T08:38:16;101029.13;;;16.84;57.68
69223;BME280;56514;51.816;-0.026;2023-08-06T08:41:00;101033.00;;;16.70;59.27
69223;BME280;56514;51.816;-0.026;2023-08-06T08:43:48;101049.44;;;16.75;58.94
69223;BME280;56514;51.816;-0.026;2023-08-06T08:46:36;101026.63;;;16.92;58.26
69223;BME280;56514;51.816;-0.026;2023-08-06T08:49:24;101038.56;;;17.07;57.60
69223;BME280;56514;51.816;-0.026;2023-08-06T08:52:11;101056.59;;;17.43;56.42
69223;BME280;56514;51.816;-0.026;2023-08-06T08:54:59;101053.81;;;17.44;56.03
69223;BME280;56514;51.816;-0.026;2023-08-06T08:57:45;101046.88;;;17.42;57.18
69223;BME280;56514;51.816;-0.026;2023-08-06T09:00:31;101037.50;;;17.76;56.17
69223;BME280;56514;51.816;-0.026;2023-08-06T09:03:17;101051.38;;;17.89;54.91
69223;BME280;56514;51.816;-0.026;2023-08-06T09:06:02;101042.56;;;17.89;54.47
69223;BME280;56514;51.816;-0.026;2023-08-06T09:09:00;101049.28;;;18.02;54.06
69223;BME280;56514;51.816;-0.026;2023-08-06T09:11:48;101047.41;;;18.12;52.35
69223;BME280;56514;51.816;-0.026;2023-08-06T09:14:34;101043.94;;;17.93;53.35
69223;BME280;56514;51.816;-0.026;2023-08-06T09:17:19;101043.47;;;18.16;52.80
69223;BME280;56514;51.816;-0.026;2023-08-06T09:20:12;101051.88;;;18.31;52.00
69223;BME280;56514;51.816;-0.026;2023-08-06T09:22:58;101054.31;;;18.61;52.62
69223;BME280;56514;51.816;-0.026;2023-08-06T09:25:43;101051.84;;;18.77;52.04
69223;BME280;56514;51.816;-0.026;2023-08-06T09:28:38;101057.13;;;18.86;50.26
69223;BME280;56514;51.816;-0.026;2023-08-06T09:31:23;101058.91;;;18.68;50.90
69223;BME280;56514;51.816;-0.026;2023-08-06T09:34:15;101072.28;;;18.68;48.19
69223;BME280;56514;51.816;-0.026;2023-08-06T09:37:01;101067.66;;;18.61;47.85
69223;BME280;56514;51.816;-0.026;2023-08-06T09:39:45;101063.59;;;18.66;49.73
69223;BME280;56514;51.816;-0.026;2023-08-06T09:42:30;101070.28;;;18.80;48.40
69223;BME280;56514;51.816;-0.026;2023-08-06T09:45:16;101067.19;;;18.75;49.42
69223;BME280;56514;51.816;-0.026;2023-08-06T09:48:07;101068.63;;;18.96;47.38
69223;BME280;56514;51.816;-0.026;2023-08-06T09:50:53;101071.09;;;18.80;48.02
69223;BME280;56514;51.816;-0.026;2023-08-06T09:53:40;101067.47;;;18.72;48.74
69223;BME280;56514;51.816;-0.026;2023-08-06T09:56:25;101070.03;;;18.91;48.76
69223;BME280;56514;51.816;-0.026;2023-08-06T09:59:14;101079.63;;;18.93;48.31
69223;BME280;56514;51.816;-0.026;2023-08-06T10:02:11;101073.97;;;18.96;46.83
69223;BME280;56514;51.816;-0.026;2023-08-06T10:04:57;101084.78;;;19.04;47.74
69223;BME280;56514;51.816;-0.026;2023-08-06T10:07:43;101089.41;;;19.02;48.47
69223;BME280;56514;51.816;-0.026;2023-08-06T10:10:30;101097.00;;;19.24;48.35
69223;BME280;56514;51.816;-0.026;2023-08-06T10:13:18;101081.50;;;19.38;46.01
69223;BME280;56514;51.816;-0.026;2023-08-06T10:16:05;101078.56;;;19.31;46.98
69223;BME280;56514;51.816;-0.026;2023-08-06T10:18:50;101093.56;;;19.42;45.14
69223;BME280;56514;51.816;-0.026;2023-08-06T10:21:40;101088.13;;;19.34;45.56
69223;BME280;56514;51.816;-0.026;2023-08-06T10:24:25;101088.97;;;19.34;45.57
69223;BME280;56514;51.816;-0.026;2023-08-06T10:28:02;101087.81;;;19.72;44.78
69223;BME280;56514;51.816;-0.026;2023-08-06T10:30:29;101098.16;;;20.02;45.07
69223;BME280;56514;51.816;-0.026;2023-08-06T10:33:15;101086.84;;;20.33;44.04
69223;BME280;56514;51.816;-0.026;2023-08-06T10:36:03;101097.16;;;20.46;42.90
69223;BME280;56514;51.816;-0.026;2023-08-06T10:38:57;101076.66;;;20.37;43.93
69223;BME280;56514;51.816;-0.026;2023-08-06T10:41:43;101097.34;;;20.52;43.98
69223;BME280;56514;51.816;-0.026;2023-08-06T10:44:31;101101.56;;;20.88;44.06
69223;BME280;56514;51.816;-0.026;2023-08-06T10:47:27;101088.63;;;20.84;43.27
69223;BME280;56514;51.816;-0.026;2023-08-06T10:50:16;101095.56;;;20.95;42.11
69223;BME280;56514;51.816;-0.026;2023-08-06T10:53:05;101094.66;;;20.78;43.14
69223;BME280;56514;51.816;-0.026;2023-08-06T10:55:53;101097.47;;;21.02;43.47
69223;BME280;56514;51.816;-0.026;2023-08-06T10:58:38;101097.03;;;21.31;41.85
69223;BME280;56514;51.816;-0.026;2023-08-06T11:01:23;101097.97;;;21.06;41.86
69223;BME280;56514;51.816;-0.026;2023-08-06T11:04:08;101099.69;;;20.89;42.66
69223;BME280;56514;51.816;-0.026;2023-08-06T11:07:00;101099.28;;;21.02;42.51
69223;BME280;56514;51.816;-0.026;2023-08-06T11:09:44;101099.22;;;21.35;41.90
69223;BME280;56514;51.816;-0.026;2023-08-06T11:12:30;101096.50;;;21.19;42.11
69223;BME280;56514;51.816;-0.026;2023-08-06T11:15:15;101100.03;;;21.20;42.25
69223;BME280;56514;51.816;-0.026;2023-08-06T11:18:00;101092.03;;;21.36;42.04
69223;BME280;56514;51.816;-0.026;2023-08-06T11:20:47;101096.75;;;21.42;41.66
69223;BME280;56514;51.816;-0.026;2023-08-06T11:23:32;101082.31;;;21.51;41.14
69223;BME280;56514;51.816;-0.026;2023-08-06T11:26:20;101087.88;;;21.57;42.02
69223;BME280;56514;51.816;-0.026;2023-08-06T11:29:05;101087.25;;;21.79;40.49
69223;BME280;56514;51.816;-0.026;2023-08-06T11:31:51;101083.22;;;21.75;40.10
69223;BME280;56514;51.816;-0.026;2023-08-06T11:34:36;101089.09;;;21.79;38.69
69223;BME280;56514;51.816;-0.026;2023-08-06T11:37:22;101088.44;;;21.77;38.65
69223;BME280;56514;51.816;-0.026;2023-08-06T11:40:09;101081.81;;;21.55;38.49
69223;BME280;56514;51.816;-0.026;2023-08-06T11:42:55;101087.16;;;21.47;39.63
69223;BME280;56514;51.816;-0.026;2023-08-06T11:45:41;101085.53;;;21.54;38.06
69223;BME280;56514;51.816;-0.026;2023-08-06T11:48:26;101080.84;;;21.72;39.03
69223;BME280;56514;51.816;-0.026;2023-08-06T11:51:12;101084.41;;;21.89;38.75
69223;BME280;56514;51.816;-0.026;2023-08-06T11:54:00;101074.81;;;22.18;37.68
69223;BME280;56514;51.816;-0.026;2023-08-06T11:56:46;101082.53;;;22.05;38.72
69223;BME280;56514;51.816;-0.026;2023-08-06T11:59:31;101092.09;;;22.32;37.80
69223;BME280;56514;51.816;-0.026;2023-08-06T12:02:16;101091.53;;;22.69;36.54
69223;BME280;56514;51.816;-0.026;2023-08-06T12:05:10;101084.63;;;22.66;36.81
69223;BME280;56514;51.816;-0.026;2023-08-06T12:07:57;101087.91;;;22.92;36.47
69223;BME280;56514;51.816;-0.026;2023-08-06T12:10:42;101093.63;;;23.36;35.40
69223;BME280;56514;51.816;-0.026;2023-08-06T12:13:28;101081.81;;;23.59;34.67
69223;BME280;56514;51.816;-0.026;2023-08-06T12:16:13;101082.53;;;23.31;35.03
69223;BME280;56514;51.816;-0.026;2023-08-06T12:18:58;101081.56;;;23.16;36.12
69223;BME280;56514;51.816;-0.026;2023-08-06T12:21:43;101084.13;;;23.09;35.69
69223;BME280;56514;51.816;-0.026;2023-08-06T12:24:28;101095.09;;;23.00;35.88
69223;BME280;56514;51.816;-0.026;2023-08-06T12:27:17;101089.38;;;23.03;35.80
69223;BME280;56514;51.816;-0.026;2023-08-06T12:30:02;101097.25;;;23.43;35.84
69223;BME280;56514;51.816;-0.026;2023-08-06T12:32:48;101084.47;;;23.67;34.77
69223;BME280;56514;51.816;-0.026;2023-08-06T12:35:33;101085.66;;;23.65;35.43
69223;BME280;56514;51.816;-0.026;2023-08-06T12:38:18;101088.59;;;24.00;35.35
69223;BME280;56514;51.816;-0.026;2023-08-06T12:41:03;101083.53;;;24.05;34.65
69223;BME280;56514;51.816;-0.026;2023-08-06T12:43:48;101086.13;;;23.91;34.61
69223;BME280;56514;51.816;-0.026;2023-08-06T12:46:33;101095.03;;;23.99;34.74
69223;BME280;56514;51.816;-0.026;2023-08-06T12:49:18;101089.81;;;23.98;35.14
69223;BME280;56514;51.816;-0.026;2023-08-06T12:52:05;101092.16;;;24.01;35.19
69223;BME280;56514;51.816;-0.026;2023-08-06T12:54:52;101082.06;;;24.32;34.40
69223;BME280;56514;51.816;-0.026;2023-08-06T12:57:37;101098.41;;;24.16;34.70
69223;BME280;56514;51.816;-0.026;2023-08-06T13:00:21;101086.09;;;23.99;35.05
69223;BME280;56514;51.816;-0.026;2023-08-06T13:03:07;101096.38;;;24.18;35.22
69223;BME280;56514;51.816;-0.026;2023-08-06T13:05:51;101092.47;;;24.35;35.85
69223;BME280;56514;51.816;-0.026;2023-08-06T13:08:36;101084.41;;;24.64;34.82
69223;BME280;56514;51.816;-0.026;2023-08-06T13:11:21;101099.44;;;24.96;33.13
69223;BME280;56514;51.816;-0.026;2023-08-06T13:14:10;101098.19;;;25.13;32.57
69223;BME280;56514;51.816;-0.026;2023-08-06T13:16:55;101096.44;;;24.76;33.87
69223;BME280;56514;51.816;-0.026;2023-08-06T13:19:40;101092.69;;;24.48;33.78
69223;BME280;56514;51.816;-0.026;2023-08-06T13:22:25;101093.50;;;24.20;34.84
69223;BME280;56514;51.816;-0.026;2023-08-06T13:25:13;101098.72;;;24.21;36.14
69223;BME280;56514;51.816;-0.026;2023-08-06T13:28:00;101105.66;;;24.67;36.39
69223;BME280;56514;51.816;-0.026;2023-08-06T13:30:45;101109.69;;;25.93;34.09
69223;BME280;56514;51.816;-0.026;2023-08-06T13:33:30;101108.94;;;26.75;32.86
69223;BME280;56514;51.816;-0.026;2023-08-06T13:36:16;101107.84;;;27.10;32.25
69223;BME280;56514;51.816;-0.026;2023-08-06T13:39:01;101107.88;;;26.69;32.05
69223;BME280;56514;51.816;-0.026;2023-08-06T13:41:45;101106.22;;;26.47;32.27
69223;BME280;56514;51.816;-0.026;2023-08-06T13:44:30;101106.38;;;26.12;32.14
69223;BME280;56514;51.816;-0.026;2023-08-06T13:47:20;101112.88;;;25.39;32.48
69223;BME280;56514;51.816;-0.026;2023-08-06T13:50:05;101111.59;;;25.35;33.78
69223;BME280;56514;51.816;-0.026;2023-08-06T13:52:50;101109.53;;;27.65;30.46
69223;BME280;56514;51.816;-0.026;2023-08-06T13:55:35;101104.84;;;29.22;27.09
69223;BME280;56514;51.816;-0.026;2023-08-06T13:58:19;101108.47;;;28.89;29.05
69223;BME280;56514;51.816;-0.026;2023-08-06T14:01:04;101111.63;;;28.86;27.80
69223;BME280;56514;51.816;-0.026;2023-08-06T14:03:49;101109.94;;;29.05;27.95
69223;BME280;56514;51.816;-0.026;2023-08-06T14:06:34;101110.00;;;28.72;27.77
69223;BME280;56514;51.816;-0.026;2023-08-06T14:09:18;101119.66;;;27.30;29.50
69223;BME280;56514;51.816;-0.026;2023-08-06T14:12:03;101114.66;;;28.52;29.24
69223;BME280;56514;51.816;-0.026;2023-08-06T14:14:48;101113.91;;;27.72;29.31
69223;BME280;56514;51.816;-0.026;2023-08-06T14:17:33;101128.59;;;26.07;32.27
69223;BME280;56514;51.816;-0.026;2023-08-06T14:20:18;101137.47;;;25.15;34.36
69223;BME280;56514;51.816;-0.026;2023-08-06T14:23:02;101139.91;;;25.10;35.66
69223;BME280;56514;51.816;-0.026;2023-08-06T14:25:47;101142.59;;;25.39;35.52
69223;BME280;56514;51.816;-0.026;2023-08-06T14:28:33;101123.97;;;26.56;34.34